Time;durP1;ratioP1;P1;durP2;ratioP2;P2;SDS_P1;SDS_P2;PMS_P1;PMS_P2;Temp;Humidity;BMP_temperature;BMP_pressure;BME280_temperature;BME280_humidity;BME280_pressure;Samples;Min_cycle;Max_cycle;Signal;HPM_P1;HPM_P2
2021/01/14 00:02:30;;;;;;;0.45;0.20;;;4.40;99.90;;;;;;10357202;28;20111;-53
2021/01/14 00:07:53;;;;;;;10.20;2.70;;;4.30;99.90;;;;;;10357118;28;20088;-53
2021/01/14 00:13:14;;;;;;;0.30;0.03;;;4.30;99.90;;;;;;10362106;28;20112;-53
2021/01/14 00:18:35;;;;;;;2.30;0.20;;;4.30;99.90;;;;;;10357674;28;20824;-53
2021/01/14 00:23:56;;;;;;;0.77;0.47;;;4.20;99.90;;;;;;10360191;28;20537;-53
2021/01/14 00:29:17;;;;;;;0.47;0.10;;;4.20;99.90;;;;;;10358032;28;20133;-54
2021/01/14 00:34:38;;;;;;;3.20;0.32;;;4.20;99.90;;;;;;10361220;28;20088;-54
2021/01/14 00:39:59;;;;;;;5.00;1.85;;;4.20;99.90;;;;;;10359270;28;21989;-53
2021/01/14 00:45:20;;;;;;;0.20;0.10;;;4.10;99.90;;;;;;10360543;28;20073;-53
2021/01/14 00:50:41;;;;;;;0.32;0.10;;;4.10;99.90;;;;;;10360022;28;20037;-53
2021/01/14 00:56:02;;;;;;;3.92;0.28;;;4.00;99.90;;;;;;10358678;28;20053;-53
2021/01/14 01:01:23;;;;;;;0.57;0.28;;;3.90;99.90;;;;;;10365245;28;20073;-53
2021/01/14 01:06:44;;;;;;;0.43;0.13;;;3.90;99.90;;;;;;10362674;28;20494;-53
2021/01/14 01:12:06;;;;;;;0.57;0.35;;;3.90;99.90;;;;;;10367094;28;20497;-53
2021/01/14 01:17:31;;;;;;;0.43;0.17;;;3.90;99.90;;;;;;10368119;28;20042;-53
2021/01/14 01:22:56;;;;;;;5.65;0.30;;;4.00;99.90;;;;;;10366975;28;20121;-53
2021/01/14 01:28:16;;;;;;;2.00;0.77;;;4.00;99.90;;;;;;10366038;28;20561;-53
2021/01/14 01:33:40;;;;;;;0.15;0.05;;;3.90;99.90;;;;;;10374774;28;20401;-53
2021/01/14 01:39:01;;;;;;;0.25;0.10;;;3.90;99.90;;;;;;10368961;28;20081;-53
2021/01/14 01:44:24;;;;;;;0.45;0.20;;;3.80;99.90;;;;;;10365361;28;20051;-53
2021/01/14 01:49:46;;;;;;;2.50;0.10;;;3.80;99.90;;;;;;10367552;28;20056;-53
2021/01/14 01:55:08;;;;;;;2.55;0.10;;;3.60;99.90;;;;;;10369126;28;20125;-53
2021/01/14 02:00:29;;;;;;;0.10;0.10;;;3.60;99.90;;;;;;10364341;28;20044;-53
2021/01/14 02:05:50;;;;;;;1.10;0.95;;;3.60;99.90;;;;;;10376925;28;20029;-53
2021/01/14 02:11:37;;;;;;;0.10;0.05;;;3.60;99.90;;;;;;10363343;28;20638;-53
2021/01/14 02:16:58;;;;;;;3.20;0.90;;;3.70;99.90;;;;;;10370660;28;20042;-53
2021/01/14 02:22:24;;;;;;;0.10;0.05;;;3.60;99.90;;;;;;10365379;28;20037;-53
2021/01/14 02:27:47;;;;;;;0.30;0.10;;;3.60;99.90;;;;;;10367075;28;20058;-53
2021/01/14 02:33:12;;;;;;;0.55;0.10;;;3.60;99.90;;;;;;10363484;28;20033;-53
2021/01/14 02:38:35;;;;;;;0.22;0.00;;;3.60;99.90;;;;;;10364411;28;20050;-53
2021/01/14 02:43:56;;;;;;;0.73;0.15;;;3.60;99.90;;;;;;10362410;28;20038;-53
2021/01/14 02:49:18;;;;;;;0.70;0.00;;;3.60;99.90;;;;;;10362384;28;20115;-53
2021/01/14 02:54:40;;;;;;;0.22;0.10;;;3.40;99.90;;;;;;10363498;28;20043;-53
2021/01/14 03:00:03;;;;;;;0.00;0.00;;;3.40;99.90;;;;;;10363028;28;20501;-53
2021/01/14 03:05:24;;;;;;;1.23;0.30;;;3.30;99.90;;;;;;10380692;28;20044;-53
2021/01/14 03:10:45;;;;;;;3.10;0.85;;;3.30;99.90;;;;;;10362103;28;20030;-53
2021/01/14 03:16:07;;;;;;;9.02;0.30;;;3.30;99.90;;;;;;10365845;28;20104;-53
2021/01/14 03:21:28;;;;;;;0.00;0.00;;;3.30;99.90;;;;;;10361626;28;20041;-53
2021/01/14 03:26:49;;;;;;;0.17;0.00;;;3.20;99.90;;;;;;10372316;28;20107;-53
2021/01/14 03:32:09;;;;;;;0.00;0.00;;;3.20;99.90;;;;;;10356820;28;20117;-53
2021/01/14 03:37:31;;;;;;;1.00;0.10;;;3.20;99.90;;;;;;10359609;28;20102;-53
2021/01/14 03:42:52;;;;;;;0.43;0.17;;;3.00;99.90;;;;;;10360171;28;20454;-53
2021/01/14 03:48:13;;;;;;;0.40;0.10;;;3.00;99.90;;;;;;10371431;28;20052;-53
2021/01/14 03:53:34;;;;;;;1.35;0.55;;;3.00;99.90;;;;;;10360868;28;20040;-53
2021/01/14 03:58:54;;;;;;;5.43;1.42;;;2.90;99.90;;;;;;10359320;28;20124;-53
2021/01/14 04:04:15;;;;;;;0.10;0.00;;;2.90;99.90;;;;;;10360876;28;20042;-53
2021/01/14 04:09:37;;;;;;;0.52;0.30;;;2.80;99.90;;;;;;10363138;28;20045;-53
2021/01/14 04:14:58;;;;;;;2.45;0.28;;;2.80;99.90;;;;;;10355663;28;20121;-53
2021/01/14 04:20:19;;;;;;;0.43;0.20;;;2.80;99.90;;;;;;10358434;28;20056;-53
2021/01/14 04:25:40;;;;;;;0.03;0.00;;;2.80;99.90;;;;;;10361955;28;20052;-53
2021/01/14 04:31:01;;;;;;;4.28;0.13;;;2.90;99.90;;;;;;10361974;28;20053;-53
2021/01/14 04:36:22;;;;;;;0.88;0.20;;;2.90;99.90;;;;;;10365551;28;20155;-53
2021/01/14 04:41:50;;;;;;;0.57;0.30;;;2.80;99.90;;;;;;10369387;28;20053;-53
2021/01/14 04:47:16;;;;;;;0.55;0.28;;;2.80;99.90;;;;;;10368101;28;20042;-53
2021/01/14 04:52:42;;;;;;;0.57;0.57;;;2.80;99.90;;;;;;10367469;28;20065;-53
2021/01/14 04:58:05;;;;;;;0.50;0.10;;;2.80;99.90;;;;;;10366767;28;20046;-53
2021/01/14 05:03:27;;;;;;;0.65;0.10;;;2.70;99.90;;;;;;10366239;28;20088;-53
2021/01/14 05:08:50;;;;;;;0.88;0.03;;;2.70;99.90;;;;;;10365916;28;20048;-53
2021/01/14 05:14:11;;;;;;;0.15;0.15;;;2.70;99.90;;;;;;10363437;28;20049;-53
2021/01/14 05:19:32;;;;;;;4.95;0.28;;;2.70;99.90;;;;;;10364096;28;20045;-53
2021/01/14 05:25:07;;;;;;;0.05;0.00;;;2.70;99.90;;;;;;10378147;28;20068;-53
2021/01/14 05:30:28;;;;;;;1.10;0.63;;;2.60;99.90;;;;;;10365201;28;20040;-53
2021/01/14 05:35:50;;;;;;;0.77;0.10;;;2.60;99.90;;;;;;10370074;28;20137;-53
2021/01/14 05:41:18;;;;;;;0.10;0.10;;;2.70;99.90;;;;;;10367135;28;20457;-53
2021/01/14 05:46:38;;;;;;;0.00;0.00;;;2.70;99.90;;;;;;10365447;28;20045;-53
2021/01/14 05:52:01;;;;;;;0.32;0.10;;;2.70;99.90;;;;;;10362693;28;20063;-53
2021/01/14 05:57:32;;;;;;;1.52;0.28;;;2.80;99.90;;;;;;10364253;28;20117;-53
2021/01/14 06:02:53;;;;;;;0.00;0.00;;;2.80;99.90;;;;;;10363046;28;20034;-53
2021/01/14 06:08:28;;;;;;;0.30;0.00;;;2.80;99.90;;;;;;10364432;28;20459;-53
2021/01/14 06:13:50;;;;;;;0.20;0.10;;;2.80;99.90;;;;;;10360873;28;20048;-53
2021/01/14 06:19:10;;;;;;;0.03;0.00;;;2.80;99.90;;;;;;10363024;28;20537;-53
2021/01/14 06:24:41;;;;;;;0.08;0.00;;;2.80;99.90;;;;;;10363599;28;20049;-53
2021/01/14 06:30:08;;;;;;;0.13;0.10;;;2.70;99.90;;;;;;10361620;28;20033;-53
2021/01/14 06:35:29;;;;;;;0.10;0.08;;;2.80;99.90;;;;;;10360237;28;20048;-53
2021/01/14 06:40:58;;;;;;;0.17;0.00;;;2.80;99.90;;;;;;10365552;28;20121;-53
2021/01/14 06:46:22;;;;;;;;;;;2.80;99.90;;;;;;10366469;28;21802;-53
2021/01/14 06:51:56;;;;;;;5.55;0.93;;;2.80;99.90;;;;;;10364479;28;20007;-53
2021/01/14 06:57:24;;;;;;;1.65;0.35;;;2.80;99.90;;;;;;10362179;28;20429;-53
2021/01/14 07:02:53;;;;;;;0.03;0.03;;;2.80;99.90;;;;;;10361861;28;20069;-53
2021/01/14 07:08:34;;;;;;;0.10;0.10;;;2.70;99.90;;;;;;10364625;28;20102;-53
2021/01/14 07:13:57;;;;;;;0.00;0.00;;;2.70;99.90;;;;;;10361876;28;20049;-53
2021/01/14 07:19:18;;;;;;;0.95;0.17;;;2.70;99.90;;;;;;10364964;28;20056;-54
2021/01/14 07:24:41;;;;;;;0.10;0.00;;;2.70;99.90;;;;;;10364885;28;20133;-53
2021/01/14 07:30:03;;;;;;;2.20;1.05;;;2.60;99.90;;;;;;10361017;28;20072;-53
2021/01/14 07:35:42;;;;;;;1.17;0.25;;;2.70;99.90;;;;;;10361770;28;20084;-53
2021/01/14 07:41:03;;;;;;;0.75;0.28;;;2.70;99.90;;;;;;10364236;28;20099;-53
2021/01/14 07:46:27;;;;;;;2.03;0.95;;;2.70;99.90;;;;;;10365339;28;20041;-53
2021/01/14 07:51:48;;;;;;;15.13;0.77;;;2.70;99.90;;;;;;10364825;28;20034;-53
2021/01/14 07:57:12;;;;;;;1.58;0.50;;;2.70;99.90;;;;;;10360036;28;20369;-53
2021/01/14 08:03:05;;;;;;;0.30;0.10;;;2.60;99.90;;;;;;10360102;28;20034;-53
2021/01/14 08:08:29;;;;;;;1.30;0.28;;;2.80;99.90;;;;;;10355216;28;20226;-53
2021/01/14 08:14:16;;;;;;;0.45;0.10;;;2.80;99.90;;;;;;10354591;28;20026;-53
2021/01/14 08:19:38;;;;;;;1.48;0.45;;;2.80;99.90;;;;;;10354108;28;20079;-53
2021/01/14 08:24:59;;;;;;;0.13;0.10;;;2.90;99.90;;;;;;10360807;28;20049;-53
2021/01/14 08:30:24;;;;;;;0.85;0.30;;;2.80;99.90;;;;;;10358984;28;20424;-53
2021/01/14 08:35:47;;;;;;;2.53;0.68;;;2.80;99.90;;;;;;10357161;28;20490;-53
2021/01/14 08:41:26;;;;;;;0.35;0.13;;;2.80;99.90;;;;;;10351681;28;20042;-53
2021/01/14 08:46:50;;;;;;;0.60;0.30;;;2.80;99.90;;;;;;10357929;28;20034;-53
2021/01/14 08:52:12;;;;;;;0.45;0.17;;;2.80;99.90;;;;;;10358294;28;20506;-53
2021/01/14 08:57:51;;;;;;;2.33;0.82;;;2.70;99.90;;;;;;10358453;28;20053;-53
2021/01/14 09:03:12;;;;;;;0.52;0.20;;;2.80;99.90;;;;;;10362990;28;20060;-53
2021/01/14 09:08:33;;;;;;;0.77;0.32;;;2.80;99.90;;;;;;10361021;28;20140;-53
2021/01/14 09:14:08;;;;;;;0.43;0.13;;;2.90;99.90;;;;;;10365428;28;20042;-53
2021/01/14 09:19:29;;;;;;;1.15;0.43;;;2.90;99.90;;;;;;10357535;28;20046;-53
2021/01/14 09:24:50;;;;;;;0.95;0.30;;;2.90;99.90;;;;;;10370187;28;20065;-53
2021/01/14 09:30:16;;;;;;;0.50;0.22;;;2.90;99.90;;;;;;10368600;28;20608;-53
2021/01/14 09:35:37;;;;;;;0.73;0.15;;;2.80;99.90;;;;;;10370943;28;20037;-53
2021/01/14 09:40:58;;;;;;;0.38;0.15;;;2.90;99.90;;;;;;10364743;28;20534;-53
2021/01/14 09:46:21;;;;;;;0.70;0.28;;;2.90;99.90;;;;;;10367737;28;20375;-53
2021/01/14 09:51:45;;;;;;;1.40;0.47;;;3.10;99.90;;;;;;10366053;28;20077;-53
2021/01/14 09:57:08;;;;;;;0.95;0.22;;;3.20;99.90;;;;;;10364978;28;21279;-53
2021/01/14 10:02:34;;;;;;;5.38;0.88;;;3.30;99.90;;;;;;10370239;28;20051;-53
2021/01/14 10:08:00;;;;;;;1.52;0.38;;;3.30;99.90;;;;;;10367248;28;20463;-53
2021/01/14 10:13:21;;;;;;;3.28;0.30;;;3.40;99.90;;;;;;10366419;28;20042;-53
2021/01/14 10:18:42;;;;;;;1.05;0.43;;;3.30;99.90;;;;;;10363905;28;20041;-53
2021/01/14 10:24:04;;;;;;;3.90;0.30;;;3.40;99.90;;;;;;10365359;28;20132;-53
2021/01/14 10:29:41;;;;;;;2.92;0.40;;;3.30;99.90;;;;;;10367304;28;20112;-52
2021/01/14 10:35:02;;;;;;;0.40;0.20;;;3.30;99.90;;;;;;10368846;28;20509;-52
2021/01/14 10:40:26;;;;;;;1.17;0.50;;;3.30;99.90;;;;;;10362356;28;20085;-52
2021/01/14 10:45:50;;;;;;;4.30;1.02;;;3.20;99.90;;;;;;10370607;28;20045;-52
2021/01/14 10:51:11;;;;;;;5.07;0.73;;;3.60;99.90;;;;;;10370174;28;20054;-52
2021/01/14 10:56:32;;;;;;;1.05;0.50;;;3.70;99.90;;;;;;10367918;28;20030;-52
2021/01/14 11:02:04;;;;;;;5.40;0.68;;;3.70;99.90;;;;;;10366732;28;20052;-52
2021/01/14 11:07:25;;;;;;;1.02;0.30;;;3.60;99.90;;;;;;10366335;28;20140;-52
2021/01/14 11:13:10;;;;;;;1.02;0.30;;;3.40;99.90;;;;;;10367016;28;20048;-52
2021/01/14 11:18:34;;;;;;;1.00;0.45;;;3.40;99.90;;;;;;10381846;28;20046;-52
2021/01/14 11:23:56;;;;;;;1.73;0.57;;;3.40;99.90;;;;;;10364257;28;20041;-52
2021/01/14 11:29:17;;;;;;;3.65;0.80;;;3.40;99.90;;;;;;10364776;28;20042;-52
2021/01/14 11:34:38;;;;;;;6.93;0.68;;;3.30;99.90;;;;;;10371266;28;20065;-52
2021/01/14 11:39:59;;;;;;;1.35;0.82;;;3.30;99.90;;;;;;10362588;28;20072;-52
2021/01/14 11:45:19;;;;;;;0.63;0.38;;;3.30;99.90;;;;;;10369769;28;20033;-52
2021/01/14 11:50:40;;;;;;;2.30;0.70;;;3.40;99.90;;;;;;10360009;28;20057;-52
2021/01/14 11:56:02;;;;;;;2.65;0.80;;;3.60;99.90;;;;;;10363756;28;20053;-52
2021/01/14 12:01:23;;;;;;;1.48;0.47;;;3.50;99.90;;;;;;10360282;28;20525;-52
2021/01/14 12:06:50;;;;;;;0.43;0.20;;;3.50;99.90;;;;;;10358822;28;20111;-52
2021/01/14 12:12:12;;;;;;;2.67;0.40;;;3.50;99.90;;;;;;10366041;28;20033;-52
2021/01/14 12:17:33;;;;;;;1.65;0.68;;;3.60;99.90;;;;;;10366237;28;20049;-52
2021/01/14 12:22:54;;;;;;;2.33;0.57;;;3.60;99.90;;;;;;10361713;28;20497;-52
2021/01/14 12:28:15;;;;;;;1.92;0.55;;;3.90;99.90;;;;;;10360681;28;20037;-52
2021/01/14 12:33:36;;;;;;;1.02;0.35;;;3.50;99.90;;;;;;10367203;28;20030;-52
2021/01/14 12:38:57;;;;;;;1.17;0.43;;;3.60;99.90;;;;;;10360246;28;20061;-52
2021/01/14 12:44:19;;;;;;;2.78;0.40;;;3.50;99.90;;;;;;10361957;28;20110;-52
2021/01/14 12:49:40;;;;;;;2.47;1.05;;;3.50;99.90;;;;;;10361929;28;20503;-52
2021/01/14 12:55:01;;;;;;;1.17;0.43;;;3.70;99.90;;;;;;10364066;28;20390;-52
2021/01/14 13:00:22;;;;;;;3.03;1.05;;;3.90;99.90;;;;;;10367000;28;20616;-51
2021/01/14 13:05:46;;;;;;;1.80;0.50;;;3.70;99.90;;;;;;10368761;28;20038;-51
2021/01/14 13:11:13;;;;;;;0.98;0.40;;;3.70;99.90;;;;;;10365430;28;20162;-52
2021/01/14 13:16:39;;;;;;;1.27;0.50;;;3.80;99.90;;;;;;10364028;28;20080;-52
2021/01/14 13:22:00;;;;;;;5.05;0.80;;;3.70;99.90;;;;;;10366659;28;20040;-52
2021/01/14 13:27:21;;;;;;;1.63;1.02;;;3.70;99.90;;;;;;10365443;28;20042;-52
2021/01/14 13:32:42;;;;;;;0.75;0.30;;;3.90;99.90;;;;;;10363330;28;20042;-52
2021/01/14 13:38:03;;;;;;;4.10;2.13;;;3.70;99.90;;;;;;10363585;28;20072;-52
2021/01/14 13:43:24;;;;;;;1.75;0.50;;;3.50;99.90;;;;;;10369177;28;20514;-52
2021/01/14 13:48:45;;;;;;;2.13;0.45;;;3.60;99.90;;;;;;10375648;28;20128;-52
2021/01/14 13:54:07;;;;;;;1.15;0.73;;;3.80;99.90;;;;;;10364875;28;20046;-52
2021/01/14 13:59:31;;;;;;;2.17;0.73;;;3.90;99.90;;;;;;10365425;28;20059;-51
2021/01/14 14:04:55;;;;;;;6.65;1.55;;;4.00;99.90;;;;;;10364486;28;20034;-51
2021/01/14 14:10:16;;;;;;;0.90;0.28;;;3.80;99.90;;;;;;10365517;28;20037;-51
2021/01/14 14:15:37;;;;;;;1.15;0.20;;;3.80;99.90;;;;;;10358469;28;20037;-52
2021/01/14 14:20:58;;;;;;;2.83;0.90;;;3.60;99.90;;;;;;10371881;28;20620;-52
2021/01/14 14:26:29;;;;;;;1.63;0.50;;;3.40;99.90;;;;;;10369414;28;20608;-52
2021/01/14 14:31:50;;;;;;;1.83;0.60;;;3.50;99.90;;;;;;10369022;28;20034;-53
2021/01/14 14:37:11;;;;;;;1.88;0.70;;;3.60;99.90;;;;;;10366958;28;20490;-52
2021/01/14 14:42:32;;;;;;;1.08;0.57;;;3.60;99.90;;;;;;10359934;28;20500;-52
2021/01/14 14:47:54;;;;;;;3.97;0.85;;;3.60;99.90;;;;;;10369353;28;20034;-52
2021/01/14 14:53:15;;;;;;;9.05;1.27;;;3.50;99.90;;;;;;10365042;28;20048;-52
2021/01/14 14:58:37;;;;;;;2.30;0.60;;;3.50;99.90;;;;;;10364669;28;20065;-52
2021/01/14 15:03:58;;;;;;;1.77;0.60;;;3.40;99.90;;;;;;10362381;28;20048;-52
2021/01/14 15:09:19;;;;;;;2.08;0.82;;;3.40;99.90;;;;;;10376594;28;20041;-52
2021/01/14 15:14:40;;;;;;;4.32;0.88;;;3.40;99.90;;;;;;10362038;28;20137;-52
2021/01/14 15:20:01;;;;;;;3.00;0.50;;;3.30;99.90;;;;;;10362659;28;20084;-52
2021/01/14 15:25:22;;;;;;;1.60;1.05;;;3.40;99.90;;;;;;10362464;28;20060;-52
2021/01/14 15:30:43;;;;;;;1.77;0.68;;;3.20;99.90;;;;;;10360850;28;20030;-52
2021/01/14 15:36:04;;;;;;;2.00;0.60;;;2.90;99.90;;;;;;10363497;28;20046;-52
2021/01/14 15:41:40;;;;;;;1.67;0.68;;;2.90;99.90;;;;;;10363320;28;20053;-52
2021/01/14 15:47:01;;;;;;;2.45;0.68;;;2.90;99.90;;;;;;10362411;28;20049;-52
2021/01/14 15:52:21;;;;;;;2.35;1.13;;;2.80;99.90;;;;;;10363388;28;20124;-52
2021/01/14 15:57:42;;;;;;;3.53;1.00;;;2.70;99.90;;;;;;10360751;28;20124;-52
2021/01/14 16:03:04;;;;;;;0.88;0.35;;;2.80;99.90;;;;;;10362961;28;20983;-52
2021/01/14 16:08:24;;;;;;;2.35;0.73;;;2.70;99.90;;;;;;10362745;28;20172;-51
2021/01/14 16:13:45;;;;;;;2.63;1.10;;;2.70;99.90;;;;;;10361547;28;20038;-52
2021/01/14 16:19:07;;;;;;;1.73;0.77;;;2.70;99.90;;;;;;10359568;28;20053;-52
2021/01/14 16:24:31;;;;;;;1.80;0.60;;;2.60;99.90;;;;;;10358330;28;20095;-51
2021/01/14 16:29:51;;;;;;;3.35;0.30;;;2.70;99.90;;;;;;10362613;28;20045;-52
2021/01/14 16:35:13;;;;;;;1.58;0.98;;;2.70;99.90;;;;;;10371712;28;20044;-52
2021/01/14 16:40:33;;;;;;;1.45;0.55;;;2.80;99.90;;;;;;10374567;28;20174;-52
2021/01/14 16:45:54;;;;;;;0.90;0.52;;;2.70;99.90;;;;;;10372857;28;20038;-51
2021/01/14 16:51:15;;;;;;;1.42;0.63;;;2.70;99.90;;;;;;10370239;28;20050;-52
2021/01/14 16:56:36;;;;;;;3.35;0.60;;;2.50;99.90;;;;;;10369735;28;20045;-51
2021/01/14 17:01:58;;;;;;;2.83;0.77;;;2.50;99.90;;;;;;10368281;28;20523;-52
2021/01/14 17:07:19;;;;;;;1.15;0.43;;;2.60;99.90;;;;;;10366673;28;20049;-52
2021/01/14 17:12:40;;;;;;;2.53;1.52;;;2.50;99.90;;;;;;10366634;28;20395;-52
2021/01/14 17:18:04;;;;;;;1.60;0.57;;;2.60;99.90;;;;;;10367451;28;20387;-52
2021/01/14 17:23:25;;;;;;;4.45;0.90;;;2.50;99.90;;;;;;10369098;28;20953;-51
2021/01/14 17:28:46;;;;;;;2.22;0.60;;;2.50;99.90;;;;;;10366779;28;20490;-52
2021/01/14 17:34:07;;;;;;;1.70;0.68;;;2.50;99.90;;;;;;10364138;28;20080;-52
2021/01/14 17:39:28;;;;;;;2.05;0.60;;;2.30;99.90;;;;;;10365085;28;20049;-52
2021/01/14 17:44:50;;;;;;;2.72;1.17;;;2.30;99.90;;;;;;10365478;28;20037;-52
2021/01/14 17:50:11;;;;;;;2.42;1.05;;;2.40;99.90;;;;;;10367179;28;21517;-52
2021/01/14 17:55:32;;;;;;;2.65;1.00;;;2.30;99.90;;;;;;10363725;28;20715;-52
2021/01/14 18:00:53;;;;;;;1.75;0.70;;;2.30;99.90;;;;;;10367424;28;20506;-52
2021/01/14 18:06:24;;;;;;;4.10;1.75;;;2.30;99.90;;;;;;10361378;28;20077;-52
2021/01/14 18:11:45;;;;;;;1.85;0.85;;;2.20;99.90;;;;;;10363184;28;20927;-52
2021/01/14 18:17:06;;;;;;;6.35;0.73;;;2.20;99.90;;;;;;10364518;28;20882;-52
2021/01/14 18:22:27;;;;;;;3.05;0.88;;;2.20;99.90;;;;;;10362549;28;20496;-52
2021/01/14 18:27:48;;;;;;;3.00;1.13;;;2.20;99.90;;;;;;10363800;28;20042;-52
2021/01/14 18:33:09;;;;;;;1.20;0.68;;;2.10;99.90;;;;;;10363778;28;21321;-54
2021/01/14 18:38:30;;;;;;;3.25;0.80;;;2.00;99.90;;;;;;10360670;28;20056;-52
2021/01/14 18:43:52;;;;;;;2.47;1.95;;;2.00;99.90;;;;;;10357588;28;20044;-52
2021/01/14 18:49:14;;;;;;;8.18;1.27;;;1.90;99.90;;;;;;10365685;28;20088;-52
2021/01/14 18:54:35;;;;;;;2.85;1.23;;;1.80;99.90;;;;;;10358978;28;20041;-52
2021/01/14 18:59:56;;;;;;;2.95;1.30;;;1.80;99.90;;;;;;10363171;28;20117;-52
2021/01/14 19:05:17;;;;;;;2.03;1.02;;;1.70;99.90;;;;;;10359584;28;20058;-52
2021/01/14 19:10:39;;;;;;;2.85;0.93;;;1.60;99.90;;;;;;10365191;28;20615;-52
2021/01/14 19:16:00;;;;;;;5.18;1.42;;;1.60;99.90;;;;;;10359425;28;20556;-52
2021/01/14 19:21:25;;;;;;;3.88;1.00;;;1.60;99.90;;;;;;10362293;28;20060;-52
2021/01/14 19:26:46;;;;;;;6.25;1.20;;;1.60;99.90;;;;;;10359514;28;20142;-52
2021/01/14 19:32:07;;;;;;;2.97;1.27;;;1.60;99.90;;;;;;10357477;28;20132;-52
2021/01/14 19:37:28;;;;;;;5.85;1.10;;;1.60;99.90;;;;;;10348801;28;20973;-52
2021/01/14 19:42:49;;;;;;;3.40;1.10;;;1.60;99.90;;;;;;10356377;28;20542;-53
2021/01/14 19:48:10;;;;;;;2.95;0.90;;;1.50;99.90;;;;;;10354630;28;20120;-52
2021/01/14 19:53:31;;;;;;;4.45;1.77;;;1.50;99.90;;;;;;10363477;28;20132;-52
2021/01/14 19:58:53;;;;;;;3.17;1.10;;;1.50;99.90;;;;;;10352740;28;20597;-52
2021/01/14 20:04:14;;;;;;;5.50;1.73;;;1.50;99.90;;;;;;10358254;28;20033;-52
2021/01/14 20:09:35;;;;;;;2.42;1.15;;;1.60;99.90;;;;;;10358815;28;20049;-52
2021/01/14 20:14:56;;;;;;;4.53;1.67;;;1.50;99.90;;;;;;10360381;28;20042;-52
2021/01/14 20:20:17;;;;;;;3.22;0.90;;;1.50;99.90;;;;;;10347988;28;20045;-52
2021/01/14 20:25:38;;;;;;;4.38;1.75;;;1.40;99.90;;;;;;10347596;28;20041;-52
2021/01/14 20:30:59;;;;;;;3.55;1.30;;;1.40;99.90;;;;;;10344666;28;20052;-52
2021/01/14 20:36:21;;;;;;;5.35;1.48;;;1.40;99.90;;;;;;10347257;28;20046;-52
2021/01/14 20:41:41;;;;;;;4.70;1.38;;;1.30;99.90;;;;;;10345183;28;20045;-52
2021/01/14 20:47:03;;;;;;;3.75;1.40;;;1.30;99.90;;;;;;10344454;28;20033;-52
2021/01/14 20:52:24;;;;;;;3.58;1.77;;;1.30;99.90;;;;;;10343267;28;20036;-52
2021/01/14 20:57:45;;;;;;;3.80;1.23;;;1.20;99.90;;;;;;10349304;28;20038;-52
2021/01/14 21:03:06;;;;;;;8.23;1.27;;;1.10;99.90;;;;;;10353040;28;20041;-52
2021/01/14 21:08:27;;;;;;;3.92;1.20;;;1.10;99.90;;;;;;10350809;28;20517;-52
2021/01/14 21:13:48;;;;;;;6.50;1.73;;;1.10;99.90;;;;;;10349285;28;20034;-52
2021/01/14 21:19:09;;;;;;;2.95;1.35;;;1.10;99.90;;;;;;10357013;28;20390;-52
2021/01/14 21:24:30;;;;;;;3.38;1.45;;;1.10;99.90;;;;;;10358950;28;20099;-52
2021/01/14 21:29:51;;;;;;;2.05;0.82;;;1.10;99.90;;;;;;10359698;28;20033;-52
2021/01/14 21:35:12;;;;;;;5.78;1.58;;;1.10;99.90;;;;;;10356681;28;20038;-52
2021/01/14 21:40:33;;;;;;;3.72;1.00;;;1.00;99.90;;;;;;10351794;28;20046;-53
2021/01/14 21:45:54;;;;;;;6.53;1.63;;;0.90;99.90;;;;;;10353575;28;20540;-52
2021/01/14 21:51:14;;;;;;;4.07;1.52;;;1.00;99.90;;;;;;10358117;28;20045;-52
2021/01/14 21:56:37;;;;;;;2.58;1.08;;;1.10;99.90;;;;;;10354514;28;20053;-52
2021/01/14 22:01:58;;;;;;;5.72;2.95;;;1.10;99.90;;;;;;10357111;28;20037;-52
2021/01/14 22:07:19;;;;;;;4.00;1.58;;;1.10;99.90;;;;;;10356034;28;20038;-52
2021/01/14 22:12:40;;;;;;;5.45;1.80;;;1.00;99.90;;;;;;10351380;28;20137;-52
2021/01/14 22:18:01;;;;;;;3.25;1.23;;;1.10;99.90;;;;;;10358483;28;20045;-52
2021/01/14 22:23:26;;;;;;;3.58;1.55;;;1.10;99.90;;;;;;10357578;28;20049;-52
2021/01/14 22:28:47;;;;;;;8.13;2.65;;;1.10;99.90;;;;;;10351125;28;20098;-52
2021/01/14 22:34:13;;;;;;;3.15;1.15;;;1.10;99.90;;;;;;10353961;28;20034;-52
2021/01/14 22:39:34;;;;;;;4.22;1.30;;;1.00;99.90;;;;;;10353514;28;20506;-52
2021/01/14 22:44:55;;;;;;;3.70;1.30;;;1.00;99.90;;;;;;10356468;28;20389;-53
2021/01/14 22:50:16;;;;;;;3.80;1.85;;;1.00;99.90;;;;;;10352923;28;20034;-52
2021/01/14 22:55:37;;;;;;;2.90;1.27;;;0.90;99.90;;;;;;10352911;28;20045;-52
2021/01/14 23:00:58;;;;;;;2.78;1.50;;;0.90;99.90;;;;;;10353133;28;20049;-52
2021/01/14 23:06:19;;;;;;;6.47;1.70;;;0.90;99.90;;;;;;10357827;28;20121;-52
2021/01/14 23:11:42;;;;;;;4.10;1.05;;;0.90;99.90;;;;;;10361742;28;20042;-52
2021/01/14 23:17:03;;;;;;;6.05;1.77;;;0.80;99.90;;;;;;10354546;28;20041;-52
2021/01/14 23:22:24;;;;;;;6.55;1.42;;;0.80;99.90;;;;;;10354010;28;20048;-52
2021/01/14 23:27:45;;;;;;;7.28;1.88;;;0.70;99.90;;;;;;10357048;28;20050;-52
2021/01/14 23:33:05;;;;;;;6.10;2.13;;;0.60;99.90;;;;;;10348860;28;20421;-52
2021/01/14 23:38:26;;;;;;;7.40;1.52;;;0.40;99.90;;;;;;10355293;28;20041;-52
2021/01/14 23:43:48;;;;;;;4.30;1.25;;;0.40;99.90;;;;;;10351179;28;20044;-52
2021/01/14 23:49:09;;;;;;;1.50;0.75;;;0.40;99.90;;;;;;10352345;28;20334;-52
2021/01/14 23:54:30;;;;;;;2.13;1.15;;;0.40;99.90;;;;;;10355508;28;20661;-52
2021/01/14 23:59:53;;;;;;;2.90;1.30;;;0.40;99.90;;;;;;10354627;28;20038;-52
